Time;durP1;ratioP1;P1;durP2;ratioP2;P2;SDS_P1;SDS_P2;PMS_P1;PMS_P2;Temp;Humidity;BMP_temperature;BMP_pressure;BME280_temperature;BME280_humidity;BME280_pressure;Samples;Min_cycle;Max_cycle;Signal;HPM_P1;HPM_P2
2023/11/12 00:00:41;;;;;;;2.33;1.77;;;1.70;99.90;;;;;;2072646;28;20218;-74
2023/11/12 00:01:42;;;;;;;3.20;2.10;;;1.70;99.90;;;;;;2070011;28;20257;-73
2023/11/12 00:02:43;;;;;;;3.17;2.20;;;1.80;99.90;;;;;;2078783;28;20242;-74
2023/11/12 00:03:44;;;;;;;3.20;2.43;;;1.80;99.90;;;;;;2083901;28;20267;-74
2023/11/12 00:04:44;;;;;;;3.30;2.13;;;1.80;99.90;;;;;;2091098;28;20286;-74
2023/11/12 00:05:45;;;;;;;6.07;3.30;;;1.80;99.90;;;;;;2090749;28;20218;-74
2023/11/12 00:06:47;;;;;;;3.77;2.23;;;1.80;99.90;;;;;;2083707;28;20224;-74
2023/11/12 00:07:48;;;;;;;5.20;2.15;;;1.90;99.90;;;;;;2059112;28;20225;-74
2023/11/12 00:08:49;;;;;;;5.63;2.67;;;1.90;99.90;;;;;;2062580;28;20242;-73
2023/11/12 00:09:51;;;;;;;4.68;2.80;;;2.00;99.90;;;;;;2071315;28;20223;-75
2023/11/12 00:10:53;;;;;;;3.80;2.20;;;2.00;99.90;;;;;;2079391;28;20718;-74
2023/11/12 00:11:54;;;;;;;5.20;2.60;;;2.10;99.90;;;;;;2087482;28;20693;-75
2023/11/12 00:12:54;;;;;;;2.63;2.07;;;2.10;99.90;;;;;;2081845;28;20230;-77
2023/11/12 00:13:55;;;;;;;6.93;3.43;;;2.10;99.90;;;;;;2074868;28;20781;-74
2023/11/12 00:14:56;;;;;;;4.37;2.43;;;2.10;99.90;;;;;;2073366;28;20312;-73
2023/11/12 00:15:58;;;;;;;3.73;2.17;;;2.10;99.90;;;;;;2093231;28;20312;-73
2023/11/12 00:16:59;;;;;;;3.17;1.58;;;2.10;99.90;;;;;;2089430;28;20240;-74
2023/11/12 00:18:00;;;;;;;5.55;2.78;;;2.10;99.90;;;;;;2089928;28;20202;-74
2023/11/12 00:19:04;;;;;;;3.83;1.98;;;2.10;99.90;;;;;;2089246;28;20230;-73
2023/11/12 00:20:06;;;;;;;2.20;1.83;;;2.00;99.90;;;;;;2077507;28;20190;-73
2023/11/12 00:21:06;;;;;;;5.45;2.50;;;2.00;99.90;;;;;;2081182;28;20272;-73
2023/11/12 00:22:08;;;;;;;8.73;4.30;;;1.90;99.90;;;;;;2087006;28;20228;-73
2023/11/12 00:23:08;;;;;;;3.00;1.90;;;1.90;99.90;;;;;;2084153;28;20230;-73
2023/11/12 00:24:11;;;;;;;3.03;2.00;;;1.80;99.90;;;;;;2082303;28;20592;-74
2023/11/12 00:25:13;;;;;;;2.72;1.85;;;1.70;99.90;;;;;;2087474;28;20218;-74
2023/11/12 00:26:14;;;;;;;3.28;1.20;;;1.70;99.90;;;;;;2078258;28;20199;-75
2023/11/12 00:27:14;;;;;;;1.53;1.40;;;1.60;99.90;;;;;;2086708;28;20631;-73
2023/11/12 00:28:15;;;;;;;4.93;3.10;;;1.60;99.90;;;;;;2081851;28;20664;-73
2023/11/12 00:29:16;;;;;;;6.53;3.73;;;1.60;99.90;;;;;;2079969;28;20221;-74
2023/11/12 00:30:17;;;;;;;6.80;3.47;;;1.50;99.90;;;;;;2090089;28;20195;-73
2023/11/12 00:31:17;;;;;;;7.07;4.30;;;1.50;99.90;;;;;;2090366;28;20481;-73
2023/11/12 00:32:18;;;;;;;8.43;3.93;;;1.40;99.90;;;;;;2086901;28;20337;-73
2023/11/12 00:33:20;;;;;;;8.93;4.90;;;1.30;99.90;;;;;;2084078;28;20597;-73
2023/11/12 00:34:20;;;;;;;10.63;5.45;;;1.30;99.90;;;;;;2080005;28;20374;-74
2023/11/12 00:35:21;;;;;;;12.03;6.50;;;1.20;99.90;;;;;;2074163;28;20286;-73
2023/11/12 00:36:22;;;;;;;8.93;4.70;;;1.30;99.90;;;;;;2081979;28;20226;-73
2023/11/12 00:37:23;;;;;;;6.53;3.93;;;1.30;99.90;;;;;;2089240;28;20223;-73
2023/11/12 00:38:24;;;;;;;12.30;4.77;;;1.20;99.90;;;;;;2092051;28;20233;-73
2023/11/12 00:39:26;;;;;;;6.03;3.83;;;1.20;99.90;;;;;;2088749;28;20786;-73
2023/11/12 00:40:30;;;;;;;14.10;4.93;;;1.20;99.90;;;;;;2090815;28;20222;-73
2023/11/12 00:41:30;;;;;;;7.18;3.90;;;1.30;99.90;;;;;;2097323;28;20697;-72
2023/11/12 00:42:31;;;;;;;9.40;4.90;;;1.30;99.90;;;;;;2081996;28;20357;-73
2023/11/12 00:43:34;;;;;;;9.93;4.87;;;1.30;99.90;;;;;;2074771;28;20287;-73
2023/11/12 00:44:35;;;;;;;7.60;3.53;;;1.30;99.90;;;;;;2078636;28;20228;-74
2023/11/12 00:45:37;;;;;;;5.32;3.72;;;1.30;99.90;;;;;;2076209;28;20245;-72
2023/11/12 00:46:40;;;;;;;5.75;3.22;;;1.30;99.90;;;;;;2086548;28;20652;-73
2023/11/12 00:47:41;;;;;;;7.38;3.35;;;1.30;99.90;;;;;;2084715;28;20651;-74
2023/11/12 00:48:44;;;;;;;6.77;2.90;;;1.30;99.90;;;;;;2067739;28;20231;-75
2023/11/12 00:49:44;;;;;;;4.53;2.75;;;1.40;99.90;;;;;;2070925;28;20638;-73
2023/11/12 00:50:45;;;;;;;6.67;2.97;;;1.30;99.90;;;;;;2083778;28;20229;-72
2023/11/12 00:51:47;;;;;;;4.93;3.87;;;1.40;99.90;;;;;;2081524;28;20690;-73
2023/11/12 00:52:47;;;;;;;4.32;3.08;;;1.40;99.90;;;;;;2075497;28;20262;-73
2023/11/12 00:53:48;;;;;;;6.80;3.70;;;1.30;99.90;;;;;;2084651;28;20256;-73
2023/11/12 00:54:49;;;;;;;4.23;2.87;;;1.40;99.90;;;;;;2086263;28;20228;-73
2023/11/12 00:55:49;;;;;;;7.27;3.20;;;1.40;99.90;;;;;;2077486;28;20229;-72
2023/11/12 00:56:50;;;;;;;5.97;3.07;;;1.40;99.90;;;;;;2069530;28;20221;-74
2023/11/12 00:57:52;;;;;;;4.85;3.38;;;1.30;99.90;;;;;;2078390;28;20305;-72
2023/11/12 00:58:52;;;;;;;4.93;2.80;;;1.30;99.90;;;;;;2094427;28;20230;-74
2023/11/12 00:59:53;;;;;;;4.20;2.20;;;1.30;99.90;;;;;;2089124;28;20224;-72
2023/11/12 01:00:54;;;;;;;5.37;2.23;;;1.30;99.90;;;;;;2086271;28;20714;-73
2023/11/12 01:01:55;;;;;;;3.43;2.77;;;1.30;99.90;;;;;;2086120;28;20235;-73
2023/11/12 01:02:55;;;;;;;7.67;3.53;;;1.30;99.90;;;;;;2082588;28;20597;-73
2023/11/12 01:03:56;;;;;;;5.83;3.60;;;1.30;99.90;;;;;;2078724;28;20241;-72
2023/11/12 01:04:57;;;;;;;5.87;3.63;;;1.30;99.90;;;;;;2070880;28;20229;-72
2023/11/12 01:05:59;;;;;;;9.80;4.10;;;1.40;99.90;;;;;;2075960;28;20309;-72
2023/11/12 01:07:00;;;;;;;12.07;4.82;;;1.40;99.90;;;;;;2081469;28;20424;-72
2023/11/12 01:08:01;;;;;;;9.77;4.90;;;1.30;99.90;;;;;;2083340;28;20194;-73
2023/11/12 01:09:02;;;;;;;7.93;4.90;;;1.30;99.90;;;;;;2081164;28;20225;-72
2023/11/12 01:10:06;;;;;;;5.38;3.53;;;1.10;99.90;;;;;;2082403;28;20199;-73
2023/11/12 01:11:07;;;;;;;5.93;3.08;;;1.20;99.90;;;;;;2082131;28;20270;-74
2023/11/12 01:12:09;;;;;;;7.90;3.47;;;1.10;99.90;;;;;;2079096;28;20182;-72
2023/11/12 01:13:09;;;;;;;4.28;2.30;;;1.10;99.90;;;;;;2081607;28;20185;-72
2023/11/12 01:14:10;;;;;;;3.67;2.63;;;1.10;99.90;;;;;;2073314;28;20290;-73
2023/11/12 01:15:15;;;;;;;3.83;2.08;;;1.00;99.90;;;;;;2081027;28;20184;-73
2023/11/12 01:16:16;;;;;;;4.15;2.22;;;1.00;99.90;;;;;;2088533;28;20196;-73
2023/11/12 01:17:16;;;;;;;4.67;1.97;;;1.00;99.90;;;;;;2086966;28;20192;-72
2023/11/12 01:18:17;;;;;;;2.43;1.60;;;1.00;99.90;;;;;;2089367;28;20271;-73
2023/11/12 01:19:19;;;;;;;5.40;2.50;;;1.00;99.90;;;;;;2083185;28;20344;-72
2023/11/12 01:20:20;;;;;;;4.57;2.13;;;1.00;99.90;;;;;;2082009;28;20298;-72
2023/11/12 01:21:20;;;;;;;3.13;2.10;;;1.00;99.90;;;;;;2066625;28;20328;-72
2023/11/12 01:22:21;;;;;;;6.23;3.67;;;1.00;99.90;;;;;;2069729;28;20316;-73
2023/11/12 01:23:22;;;;;;;6.37;3.43;;;0.90;99.90;;;;;;2087417;28;20228;-75
2023/11/12 01:24:25;;;;;;;5.43;3.90;;;0.90;99.90;;;;;;2087162;28;20232;-73
2023/11/12 01:25:26;;;;;;;7.03;2.70;;;0.90;99.90;;;;;;2092646;28;20228;-72
2023/11/12 01:26:27;;;;;;;17.27;4.13;;;0.90;99.90;;;;;;2093565;28;20287;-74
2023/11/12 01:27:28;;;;;;;17.03;3.63;;;0.90;99.90;;;;;;2086474;28;20668;-73
2023/11/12 01:28:34;;;;;;;5.53;3.73;;;0.80;99.90;;;;;;2086992;28;20228;-74
2023/11/12 01:29:35;;;;;;;7.20;3.92;;;0.80;99.90;;;;;;2078259;28;20327;-71
2023/11/12 01:30:36;;;;;;;6.57;3.42;;;0.80;99.90;;;;;;2082695;28;20240;-72
2023/11/12 01:31:37;;;;;;;5.07;2.88;;;0.90;99.90;;;;;;2081811;28;20277;-72
2023/11/12 01:32:38;;;;;;;6.47;3.47;;;0.90;99.90;;;;;;2087844;28;20278;-71
2023/11/12 01:33:39;;;;;;;9.70;3.93;;;0.90;99.90;;;;;;2092958;28;20228;-71
2023/11/12 01:34:40;;;;;;;6.40;3.45;;;0.90;99.90;;;;;;2080021;28;20240;-72
2023/11/12 01:35:40;;;;;;;9.17;4.20;;;0.90;99.90;;;;;;2091423;28;20317;-72
2023/11/12 01:36:41;;;;;;;8.47;3.87;;;1.00;99.90;;;;;;2090725;28;20712;-73
2023/11/12 01:37:44;;;;;;;17.27;3.93;;;1.00;99.90;;;;;;2082582;28;20280;-72
2023/11/12 01:38:44;;;;;;;20.40;5.80;;;1.00;99.90;;;;;;2082387;28;20247;-71
2023/11/12 01:39:48;;;;;;;12.93;3.83;;;1.00;99.90;;;;;;2087488;28;20236;-72
2023/11/12 01:40:49;;;;;;;51.70;6.60;;;0.90;99.90;;;;;;2078462;28;20258;-71
2023/11/12 01:41:49;;;;;;;39.17;5.77;;;0.90;99.90;;;;;;2084195;28;20661;-72
2023/11/12 01:42:51;;;;;;;56.33;6.03;;;0.80;99.90;;;;;;2078137;28;20261;-71
2023/11/12 01:43:51;;;;;;;21.40;3.33;;;0.80;99.90;;;;;;2087481;28;20224;-72
2023/11/12 01:44:53;;;;;;;92.00;11.20;;;0.70;99.90;;;;;;2086828;28;20300;-73
2023/11/12 01:45:54;;;;;;;38.05;4.65;;;0.70;99.90;;;;;;2086831;28;20309;-73
2023/11/12 01:46:55;;;;;;;85.68;10.38;;;0.70;99.90;;;;;;2083239;28;20509;-72
2023/11/12 01:47:56;;;;;;;65.60;7.93;;;0.60;99.90;;;;;;2074806;28;20721;-72
2023/11/12 01:48:57;;;;;;;120.37;13.90;;;0.60;99.90;;;;;;2076404;28;20231;-72
2023/11/12 01:49:58;;;;;;;87.38;10.00;;;0.60;99.90;;;;;;2081042;28;20219;-74
2023/11/12 01:51:03;;;;;;;73.30;10.37;;;0.70;99.90;;;;;;2080606;28;20181;-72
2023/11/12 01:52:06;;;;;;;62.13;10.93;;;0.60;99.90;;;;;;2071422;28;20198;-72
2023/11/12 01:53:08;;;;;;;193.43;16.30;;;0.60;99.90;;;;;;2071293;28;20715;-71
2023/11/12 01:54:09;;;;;;;97.55;10.02;;;0.60;99.90;;;;;;2076504;28;20247;-73
2023/11/12 01:55:11;;;;;;;18.92;3.55;;;0.60;99.90;;;;;;2084941;28;20732;-72
2023/11/12 01:56:14;;;;;;;21.20;3.75;;;0.60;99.90;;;;;;2077411;28;20190;-73
2023/11/12 01:57:15;;;;;;;29.00;4.10;;;0.70;99.90;;;;;;2073576;28;20183;-72
2023/11/12 01:58:17;;;;;;;14.50;3.35;;;0.80;99.90;;;;;;2074111;28;20266;-72
2023/11/12 01:59:17;;;;;;;19.88;4.28;;;0.80;99.90;;;;;;2073085;28;21782;-74
2023/11/12 02:00:19;;;;;;;87.10;7.20;;;0.80;99.90;;;;;;2070496;28;20254;-72
2023/11/12 02:01:20;;;;;;;59.05;6.55;;;0.80;99.90;;;;;;2075429;28;20456;-73
2023/11/12 02:02:22;;;;;;;145.32;14.73;;;0.70;99.90;;;;;;2081982;28;20267;-72
2023/11/12 02:03:25;;;;;;;117.47;11.82;;;0.70;99.90;;;;;;2091960;28;20731;-72
2023/11/12 02:04:27;;;;;;;69.65;7.03;;;0.70;99.90;;;;;;2091337;28;20701;-72
2023/11/12 02:05:28;;;;;;;92.30;8.73;;;0.70;99.90;;;;;;2091310;28;20828;-72
2023/11/12 02:06:29;;;;;;;48.15;7.30;;;0.70;99.90;;;;;;2086530;28;20283;-72
2023/11/12 02:07:30;;;;;;;36.93;4.93;;;0.70;99.90;;;;;;2082354;28;20229;-73
2023/11/12 02:08:33;;;;;;;102.43;9.23;;;0.70;99.90;;;;;;2079443;28;20231;-74
2023/11/12 02:09:34;;;;;;;158.02;13.85;;;0.80;99.90;;;;;;2078791;28;20239;-73
2023/11/12 02:10:36;;;;;;;118.10;8.95;;;0.90;99.90;;;;;;2080767;28;20642;-72
2023/11/12 02:11:40;;;;;;;132.00;9.25;;;1.00;99.90;;;;;;2082680;28;20647;-73
2023/11/12 02:12:45;;;;;;;59.42;6.38;;;1.00;99.90;;;;;;2075657;28;20231;-72
2023/11/12 02:13:46;;;;;;;9.70;2.08;;;0.90;99.90;;;;;;2078477;28;20242;-73
2023/11/12 02:14:47;;;;;;;88.07;5.27;;;0.90;99.90;;;;;;2074641;28;20215;-73
2023/11/12 02:15:49;;;;;;;51.33;3.80;;;0.90;99.90;;;;;;2081881;28;20229;-73
2023/11/12 02:16:51;;;;;;;141.18;9.10;;;1.00;99.90;;;;;;2089057;28;20226;-73
2023/11/12 02:17:52;;;;;;;146.63;9.73;;;0.90;99.90;;;;;;2075313;28;20313;-73
2023/11/12 02:18:54;;;;;;;140.45;8.30;;;0.80;99.90;;;;;;2088106;28;20242;-72
2023/11/12 02:20:07;;;;;;;126.65;8.68;;;0.80;99.90;;;;;;2093037;28;20228;-72
2023/11/12 02:21:08;;;;;;;188.10;11.60;;;0.90;99.90;;;;;;2091642;28;20304;-73
2023/11/12 02:22:09;;;;;;;54.00;5.37;;;1.00;99.90;;;;;;2092061;28;20539;-73
2023/11/12 02:23:09;;;;;;;271.05;13.18;;;1.00;99.90;;;;;;2092348;28;20193;-73
2023/11/12 02:24:10;;;;;;;28.60;2.87;;;1.00;99.90;;;;;;2088221;28;20206;-73
2023/11/12 02:25:13;;;;;;;68.80;5.27;;;1.00;99.90;;;;;;2087121;28;20238;-73
2023/11/12 02:26:13;;;;;;;53.00;4.75;;;1.00;99.90;;;;;;2076264;28;20219;-73
2023/11/12 02:27:14;;;;;;;28.30;3.03;;;1.00;99.90;;;;;;2077612;28;20228;-73
2023/11/12 02:28:18;;;;;;;47.50;3.57;;;1.00;99.90;;;;;;2082102;28;20636;-73
2023/11/12 02:29:19;;;;;;;66.20;5.97;;;1.00;99.90;;;;;;2082787;28;20236;-73
2023/11/12 02:30:20;;;;;;;55.83;4.47;;;1.00;99.90;;;;;;2092495;28;20227;-73
2023/11/12 02:31:21;;;;;;;11.02;2.13;;;1.00;99.90;;;;;;2080175;28;20229;-73
2023/11/12 02:32:29;;;;;;;7.60;1.67;;;1.00;99.90;;;;;;2084685;28;20925;-73
2023/11/12 02:33:30;;;;;;;7.13;1.42;;;1.10;99.90;;;;;;2072216;28;20233;-73
2023/11/12 02:34:31;;;;;;;1.52;1.00;;;1.10;99.90;;;;;;2072526;28;20244;-73
2023/11/12 02:35:33;;;;;;;2.20;1.07;;;1.10;99.90;;;;;;2082542;28;20232;-73
2023/11/12 02:36:35;;;;;;;2.95;1.25;;;1.10;99.90;;;;;;2078553;28;20240;-73
2023/11/12 02:37:37;;;;;;;2.45;1.05;;;1.10;99.90;;;;;;2068501;28;20429;-72
2023/11/12 02:38:39;;;;;;;1.00;0.90;;;0.90;99.90;;;;;;2079467;28;20288;-72
2023/11/12 02:39:43;;;;;;;2.67;1.10;;;0.90;99.90;;;;;;2086522;28;20695;-73
2023/11/12 02:40:46;;;;;;;0.95;0.82;;;0.90;99.90;;;;;;2085071;28;20260;-73
2023/11/12 02:41:47;;;;;;;1.10;1.00;;;1.00;99.90;;;;;;2087949;28;20231;-73
2023/11/12 02:42:48;;;;;;;0.97;0.80;;;1.10;99.90;;;;;;2076889;28;20271;-72
2023/11/12 02:43:50;;;;;;;1.48;1.38;;;1.00;99.90;;;;;;2074128;28;20267;-72
2023/11/12 02:44:51;;;;;;;2.15;1.40;;;0.90;99.90;;;;;;2082516;28;20222;-73
2023/11/12 02:45:51;;;;;;;1.77;1.20;;;1.00;99.90;;;;;;2095440;28;20284;-73
2023/11/12 02:46:52;;;;;;;0.80;0.80;;;0.90;99.90;;;;;;2089645;28;20251;-73
2023/11/12 02:47:53;;;;;;;1.07;0.93;;;0.80;99.90;;;;;;2082261;28;20784;-73
2023/11/12 02:49:27;;;;;;;1.07;1.00;;;0.90;99.90;;;;;;2074631;28;20756;-72
2023/11/12 02:50:32;;;;;;;1.25;0.90;;;0.90;99.90;;;;;;2086303;28;20235;-72
2023/11/12 02:51:34;;;;;;;0.90;0.80;;;0.70;99.90;;;;;;2081410;28;20240;-73
2023/11/12 02:52:35;;;;;;;1.33;1.23;;;0.80;99.90;;;;;;2081114;28;20232;-75
2023/11/12 02:53:36;;;;;;;1.87;1.30;;;0.80;99.90;;;;;;2090115;28;20245;-73
2023/11/12 02:54:36;;;;;;;1.10;0.90;;;0.80;99.90;;;;;;2080983;28;20733;-73
2023/11/12 02:55:37;;;;;;;1.53;0.90;;;0.80;99.90;;;;;;2068538;28;20323;-78
2023/11/12 02:56:39;;;;;;;1.08;0.98;;;0.90;99.90;;;;;;2071350;28;20256;-74
2023/11/12 02:57:39;;;;;;;1.90;1.30;;;0.90;99.90;;;;;;2089082;28;20232;-73
2023/11/12 02:58:40;;;;;;;1.63;1.10;;;0.90;99.90;;;;;;2082522;28;20260;-72
2023/11/12 02:59:41;;;;;;;1.17;1.07;;;0.80;99.90;;;;;;2088421;28;20224;-77
2023/11/12 03:00:42;;;;;;;1.00;0.90;;;0.80;99.90;;;;;;2091665;28;20232;-74
2023/11/12 03:01:43;;;;;;;2.63;1.40;;;0.80;99.90;;;;;;2085581;28;21515;-73
2023/11/12 03:02:46;;;;;;;1.25;1.15;;;0.70;99.90;;;;;;2082256;28;20235;-73
2023/11/12 03:03:47;;;;;;;1.23;1.13;;;0.70;99.90;;;;;;2074801;28;20263;-73
2023/11/12 03:04:49;;;;;;;1.50;1.20;;;0.70;99.90;;;;;;2078024;28;20233;-72
2023/11/12 03:05:49;;;;;;;1.48;1.30;;;0.60;99.90;;;;;;2074436;28;20221;-74
2023/11/12 03:06:51;;;;;;;2.20;1.53;;;0.60;99.90;;;;;;2085060;28;20259;-72
2023/11/12 03:07:52;;;;;;;1.60;1.15;;;0.60;99.90;;;;;;2079843;28;20717;-73
2023/11/12 03:08:54;;;;;;;1.08;0.90;;;0.60;99.90;;;;;;2081800;28;20634;-73
2023/11/12 03:09:56;;;;;;;1.42;1.02;;;0.60;99.90;;;;;;2076496;28;20232;-73
2023/11/12 03:10:56;;;;;;;1.15;1.00;;;0.60;99.90;;;;;;2085899;28;20319;-73
2023/11/12 03:11:58;;;;;;;1.50;1.40;;;0.60;99.90;;;;;;2087904;28;20235;-74
2023/11/12 03:12:59;;;;;;;0.90;0.90;;;0.60;99.90;;;;;;2091062;28;20662;-74
2023/11/12 03:14:00;;;;;;;2.40;1.65;;;0.60;99.90;;;;;;2093394;28;20200;-73
2023/11/12 03:15:01;;;;;;;1.90;1.50;;;0.60;99.90;;;;;;2090842;28;20723;-74
2023/11/12 03:16:02;;;;;;;12.63;2.30;;;0.60;99.90;;;;;;2084200;28;20230;-73
2023/11/12 03:17:03;;;;;;;25.73;3.10;;;0.50;99.90;;;;;;2075533;28;20303;-74
2023/11/12 03:18:03;;;;;;;43.27;5.20;;;0.50;99.90;;;;;;2087746;28;20195;-73
2023/11/12 03:19:04;;;;;;;37.90;4.13;;;0.40;99.90;;;;;;2083503;28;20263;-73
2023/11/12 03:20:08;;;;;;;48.63;3.17;;;0.50;99.90;;;;;;2084215;28;20195;-74
2023/11/12 03:21:10;;;;;;;33.58;4.32;;;0.40;99.90;;;;;;2071392;28;20240;-74
2023/11/12 03:22:11;;;;;;;21.73;2.97;;;0.40;99.90;;;;;;2065739;28;20192;-73
2023/11/12 03:23:11;;;;;;;23.10;3.60;;;0.30;99.90;;;;;;2089018;28;20188;-73
2023/11/12 03:24:12;;;;;;;47.57;4.63;;;0.30;99.90;;;;;;2088858;28;20195;-72
2023/11/12 03:25:14;;;;;;;12.95;1.95;;;0.30;99.90;;;;;;2084788;28;20181;-73
2023/11/12 03:26:15;;;;;;;15.35;2.70;;;0.30;99.90;;;;;;2082736;28;20597;-73
2023/11/12 03:27:16;;;;;;;9.80;1.60;;;0.40;99.90;;;;;;2085325;28;20207;-73
2023/11/12 03:28:16;;;;;;;6.32;2.17;;;0.40;99.90;;;;;;2081504;28;20189;-73
2023/11/12 03:29:17;;;;;;;1.40;1.10;;;0.40;99.90;;;;;;2086858;28;20236;-73
2023/11/12 03:30:18;;;;;;;2.37;1.57;;;0.40;99.90;;;;;;2090580;28;20255;-72
2023/11/12 03:31:19;;;;;;;1.60;1.27;;;0.50;99.90;;;;;;2095046;28;20531;-73
2023/11/12 03:32:21;;;;;;;3.23;1.47;;;0.50;99.90;;;;;;2084060;28;21233;-73
2023/11/12 03:33:22;;;;;;;1.77;1.00;;;0.50;99.90;;;;;;2078104;28;20232;-72
2023/11/12 03:34:24;;;;;;;1.30;1.20;;;0.50;99.90;;;;;;2079613;28;20631;-73
2023/11/12 03:35:25;;;;;;;1.23;1.05;;;0.50;99.90;;;;;;2061458;28;20222;-73
2023/11/12 03:36:26;;;;;;;1.17;0.90;;;0.50;99.90;;;;;;2062806;28;20321;-73
2023/11/12 03:37:27;;;;;;;1.80;1.35;;;0.60;99.90;;;;;;2078800;28;20723;-72
2023/11/12 03:38:28;;;;;;;1.37;1.27;;;0.60;99.90;;;;;;2082900;28;20279;-73
2023/11/12 03:39:28;;;;;;;1.20;0.90;;;0.60;99.90;;;;;;2078227;28;20339;-72
2023/11/12 03:40:29;;;;;;;1.10;1.00;;;0.60;99.90;;;;;;2078664;28;20256;-74
2023/11/12 03:41:30;;;;;;;1.97;1.43;;;0.60;99.90;;;;;;2086678;28;20235;-73
2023/11/12 03:42:31;;;;;;;1.63;1.13;;;0.50;99.90;;;;;;2079822;28;20241;-72
2023/11/12 03:43:32;;;;;;;1.38;1.02;;;0.50;99.90;;;;;;2073514;28;20618;-73
2023/11/12 03:44:33;;;;;;;1.90;1.00;;;0.50;99.90;;;;;;2076426;28;20644;-72
2023/11/12 03:45:33;;;;;;;1.13;0.90;;;0.50;99.90;;;;;;2076697;28;20234;-73
2023/11/12 03:46:35;;;;;;;2.00;1.07;;;0.50;99.90;;;;;;2081118;28;20287;-73
2023/11/12 03:47:36;;;;;;;1.30;1.20;;;0.50;99.90;;;;;;2078002;28;20226;-73
2023/11/12 03:48:36;;;;;;;1.57;1.10;;;0.50;99.90;;;;;;2089829;28;20263;-73
2023/11/12 03:49:41;;;;;;;3.20;1.40;;;0.40;99.90;;;;;;2087124;28;20306;-73
2023/11/12 03:50:42;;;;;;;3.85;1.83;;;0.40;99.90;;;;;;2079218;28;20224;-72
2023/11/12 03:51:43;;;;;;;1.73;1.20;;;0.50;99.90;;;;;;2086368;28;20785;-73
2023/11/12 03:52:43;;;;;;;1.67;1.00;;;0.50;99.90;;;;;;2081401;28;20262;-73
2023/11/12 03:53:44;;;;;;;1.30;1.10;;;0.50;99.90;;;;;;2078620;28;20229;-73
2023/11/12 03:54:45;;;;;;;2.33;1.43;;;0.50;99.90;;;;;;2087069;28;20220;-72
2023/11/12 03:55:46;;;;;;;1.73;1.10;;;0.60;99.90;;;;;;2080757;28;20321;-72
2023/11/12 03:56:47;;;;;;;0.70;0.70;;;0.50;99.90;;;;;;2075411;28;20220;-72
2023/11/12 03:57:47;;;;;;;0.70;0.60;;;0.60;99.90;;;;;;2071443;28;20226;-74
2023/11/12 03:58:48;;;;;;;0.90;0.90;;;0.60;99.90;;;;;;2078075;28;20374;-73
2023/11/12 03:59:51;;;;;;;0.97;0.87;;;0.70;99.90;;;;;;2091284;28;20258;-73
2023/11/12 04:00:52;;;;;;;0.80;0.80;;;0.70;99.90;;;;;;2086563;28;20705;-73
2023/11/12 04:01:52;;;;;;;0.83;0.67;;;0.60;99.90;;;;;;2084293;28;20261;-72
2023/11/12 04:02:53;;;;;;;1.20;0.80;;;0.70;99.90;;;;;;2072969;28;20234;-72
2023/11/12 04:03:54;;;;;;;1.00;0.93;;;0.70;99.90;;;;;;2085482;28;20656;-74
2023/11/12 04:04:55;;;;;;;0.63;0.63;;;0.70;99.90;;;;;;2087069;28;20313;-73
2023/11/12 04:05:57;;;;;;;0.80;0.80;;;0.80;99.90;;;;;;2082467;28;20561;-73
2023/11/12 04:06:58;;;;;;;0.75;0.75;;;0.80;99.90;;;;;;2082396;28;20205;-75
2023/11/12 04:07:59;;;;;;;0.68;0.65;;;0.80;99.90;;;;;;2087727;28;20188;-75
2023/11/12 04:09:00;;;;;;;1.58;0.90;;;0.80;99.90;;;;;;2086920;28;20216;-73
2023/11/12 04:10:01;;;;;;;1.63;1.10;;;0.90;99.90;;;;;;2095212;28;20327;-73
2023/11/12 04:11:01;;;;;;;2.03;1.40;;;0.90;99.90;;;;;;2095583;28;20677;-73
2023/11/12 04:12:04;;;;;;;2.40;1.40;;;0.90;99.90;;;;;;2090202;28;20257;-73
2023/11/12 04:13:04;;;;;;;1.92;1.40;;;0.90;99.90;;;;;;2088124;28;20188;-73
2023/11/12 04:14:05;;;;;;;3.00;1.37;;;0.90;99.90;;;;;;2077771;28;20778;-73
2023/11/12 04:15:07;;;;;;;1.47;1.20;;;0.90;99.90;;;;;;2084283;28;20235;-72
2023/11/12 04:16:08;;;;;;;2.15;1.52;;;0.90;99.90;;;;;;2092051;28;20185;-73
2023/11/12 04:17:09;;;;;;;1.63;1.30;;;0.80;99.90;;;;;;2089494;28;20195;-72
2023/11/12 04:18:10;;;;;;;2.53;1.50;;;0.80;99.90;;;;;;2093006;28;20220;-73
2023/11/12 04:19:11;;;;;;;3.00;1.97;;;0.80;99.90;;;;;;2095228;28;20244;-72
2023/11/12 04:20:12;;;;;;;2.50;1.20;;;0.80;99.90;;;;;;2086752;28;20239;-72
2023/11/12 04:21:13;;;;;;;3.70;1.97;;;0.70;99.90;;;;;;2091481;28;20189;-72
2023/11/12 04:22:14;;;;;;;1.55;1.20;;;0.80;99.90;;;;;;2094242;28;20432;-73
2023/11/12 04:23:14;;;;;;;4.10;1.53;;;0.80;99.90;;;;;;2094864;28;20273;-72
2023/11/12 04:24:16;;;;;;;1.77;1.00;;;0.80;99.90;;;;;;2086968;28;20234;-72
2023/11/12 04:25:17;;;;;;;6.55;1.60;;;0.80;99.90;;;;;;2086761;28;20208;-72
2023/11/12 04:26:17;;;;;;;2.57;1.77;;;0.80;99.90;;;;;;2095176;28;20265;-72
2023/11/12 04:27:18;;;;;;;3.80;1.93;;;0.80;99.90;;;;;;2093273;28;20238;-73
2023/11/12 04:28:20;;;;;;;2.38;1.83;;;0.80;99.90;;;;;;2091205;28;20424;-73
2023/11/12 04:29:20;;;;;;;2.60;1.80;;;0.70;99.90;;;;;;2092348;28;20316;-72
2023/11/12 04:30:21;;;;;;;3.43;2.00;;;0.80;99.90;;;;;;2083779;28;20310;-72
2023/11/12 04:31:22;;;;;;;2.47;1.53;;;0.80;99.90;;;;;;2088647;28;20274;-72
2023/11/12 04:32:23;;;;;;;3.33;2.20;;;0.90;99.90;;;;;;2081398;28;20361;-72
2023/11/12 04:33:23;;;;;;;1.97;1.23;;;0.90;99.90;;;;;;2090376;28;21177;-72
2023/11/12 04:34:24;;;;;;;2.03;1.80;;;0.90;99.90;;;;;;2098323;28;20231;-73
2023/11/12 04:35:26;;;;;;;2.97;1.80;;;0.90;99.90;;;;;;2089598;28;20258;-72
2023/11/12 04:36:28;;;;;;;2.42;1.90;;;0.90;99.90;;;;;;2087612;28;20226;-72
2023/11/12 04:37:29;;;;;;;1.70;1.23;;;1.00;99.90;;;;;;2089228;28;20229;-73
2023/11/12 04:38:30;;;;;;;2.23;1.40;;;1.00;99.90;;;;;;2093333;28;20586;-72
2023/11/12 04:39:31;;;;;;;1.65;1.17;;;1.00;99.90;;;;;;2080217;28;20220;-72
2023/11/12 04:40:32;;;;;;;2.15;1.58;;;0.90;99.90;;;;;;2078877;28;20228;-72
2023/11/12 04:41:33;;;;;;;7.70;2.30;;;1.00;99.90;;;;;;2085605;28;20240;-73
2023/11/12 04:42:33;;;;;;;1.93;1.20;;;0.90;99.90;;;;;;2088693;28;20233;-72
2023/11/12 04:43:34;;;;;;;2.30;1.57;;;1.00;99.90;;;;;;2087670;28;20220;-73
2023/11/12 04:44:35;;;;;;;3.30;1.60;;;0.90;99.90;;;;;;2085564;28;20224;-72
2023/11/12 04:45:35;;;;;;;1.83;1.33;;;1.00;99.90;;;;;;2077098;28;20686;-72
2023/11/12 04:46:37;;;;;;;1.77;1.40;;;1.00;99.90;;;;;;2078122;28;20230;-72
2023/11/12 04:47:38;;;;;;;2.42;2.05;;;0.90;99.90;;;;;;2078633;28;20432;-72
2023/11/12 04:48:39;;;;;;;1.27;1.00;;;0.90;99.90;;;;;;2077780;28;20236;-72
2023/11/12 04:49:40;;;;;;;3.50;1.52;;;0.90;99.90;;;;;;2092447;28;20622;-72
2023/11/12 04:50:41;;;;;;;0.90;0.80;;;0.90;99.90;;;;;;2089766;28;20637;-72
2023/11/12 04:51:42;;;;;;;1.63;1.20;;;0.90;99.90;;;;;;2091124;28;20227;-74
2023/11/12 04:52:42;;;;;;;1.37;0.97;;;0.90;99.90;;;;;;2092694;28;20271;-73
2023/11/12 04:53:43;;;;;;;1.53;1.07;;;1.00;99.90;;;;;;2084853;28;20234;-72
2023/11/12 04:54:50;;;;;;;2.67;1.90;;;1.00;99.90;;;;;;2085867;28;20853;-73
2023/11/12 04:55:51;;;;;;;1.85;1.15;;;1.10;99.90;;;;;;2089804;28;20232;-72
2023/11/12 04:56:51;;;;;;;1.10;0.90;;;1.10;99.90;;;;;;2075334;28;20268;-72
2023/11/12 04:57:52;;;;;;;1.37;1.17;;;1.20;99.90;;;;;;2084361;28;20236;-72
2023/11/12 04:58:53;;;;;;;3.25;1.75;;;1.20;99.90;;;;;;2090662;28;20621;-72
2023/11/12 04:59:55;;;;;;;1.73;1.30;;;1.20;99.90;;;;;;2090843;28;20254;-72
2023/11/12 05:00:55;;;;;;;3.08;1.80;;;1.20;99.90;;;;;;2090023;28;20236;-72
2023/11/12 05:01:56;;;;;;;2.43;1.60;;;1.20;99.90;;;;;;2073834;28;20241;-72
2023/11/12 05:02:57;;;;;;;2.33;1.60;;;1.20;99.90;;;;;;2072436;28;20291;-72
2023/11/12 05:03:58;;;;;;;1.63;1.30;;;1.20;99.90;;;;;;2081843;28;20228;-72
2023/11/12 05:04:59;;;;;;;1.37;1.27;;;1.20;99.90;;;;;;2087098;28;20363;-72
2023/11/12 05:06:00;;;;;;;1.25;1.00;;;1.20;99.90;;;;;;2089002;28;20243;-72
2023/11/12 05:07:00;;;;;;;5.33;1.53;;;1.30;99.90;;;;;;2081558;28;20263;-74
2023/11/12 05:08:01;;;;;;;1.53;1.00;;;1.20;99.90;;;;;;2089503;28;20198;-72
2023/11/12 05:09:02;;;;;;;2.30;1.27;;;1.10;99.90;;;;;;2088890;28;20209;-72
2023/11/12 05:10:05;;;;;;;2.07;1.17;;;1.20;99.90;;;;;;2080717;28;20180;-74
2023/11/12 05:11:05;;;;;;;2.55;1.20;;;1.20;99.90;;;;;;2082458;28;20190;-72
2023/11/12 05:12:09;;;;;;;1.40;1.23;;;1.20;99.90;;;;;;2064088;28;20664;-72
2023/11/12 05:13:10;;;;;;;2.17;1.30;;;1.20;99.90;;;;;;2072804;28;20754;-73
2023/11/12 05:14:10;;;;;;;1.85;1.50;;;1.30;99.90;;;;;;2081479;28;20211;-72
2023/11/12 05:15:11;;;;;;;2.30;1.57;;;1.30;99.90;;;;;;2082308;28;20265;-72
2023/11/12 05:16:12;;;;;;;2.65;2.17;;;1.20;99.90;;;;;;2080277;28;20184;-72
2023/11/12 05:17:13;;;;;;;4.37;1.60;;;1.20;99.90;;;;;;2082774;28;20698;-73
2023/11/12 05:18:14;;;;;;;1.60;1.43;;;1.30;99.90;;;;;;2084662;28;20690;-73
2023/11/12 05:19:15;;;;;;;2.30;1.60;;;1.30;99.90;;;;;;2088326;28;20204;-72
2023/11/12 05:20:16;;;;;;;2.90;2.20;;;1.30;99.90;;;;;;2086326;28;20242;-72
2023/11/12 05:21:17;;;;;;;2.63;1.90;;;1.30;99.90;;;;;;2080133;28;20316;-72
2023/11/12 05:22:19;;;;;;;3.15;1.90;;;1.20;99.90;;;;;;2079985;28;20527;-72